Terminal Aerodrome Forecast
Issued by NWS Memphis, TN

Home | Current Version | Previous Version | Text Only | Print | Product List | Glossary On
Versions: 1 2 3 4 5 6 7 8 9 10 11 12 13 14 15 16 17 18 19 20 21 22
000
FTUS44 KMEG 052026 AAA
TAFMKL
TAF AMD
KMKL 052026Z 0520/0618 21008KT P6SM VCSH SCT025 BKN040
     FM060000 00000KT P6SM SCT040 SCT250
      TEMPO 0611/0613 1SM BR BKN004
     FM061400 20005KT P6SM SCT015
     FM061600 22007KT P6SM SCT025 BKN035=

USA.gov is the U.S. government's official web portal to all federal, state and local government web resources and services.